sensor_id;sensor_type;location;lat;lon;timestamp;P1;durP1;ratioP1;P2;durP2;ratioP2
29384;SDS011;16367;48.736;9.218;2023-04-24T00:01:10;4.47;;;1.05;;
29384;SDS011;16367;48.736;9.218;2023-04-24T00:03:14;3.67;;;1.05;;
29384;SDS011;16367;48.736;9.218;2023-04-24T00:05:17;3.75;;;0.90;;
29384;SDS011;16367;48.736;9.218;2023-04-24T00:07:20;2.95;;;1.02;;
29384;SDS011;16367;48.736;9.218;2023-04-24T00:09:24;2.28;;;0.80;;
29384;SDS011;16367;48.736;9.218;2023-04-24T00:11:27;2.72;;;0.80;;
29384;SDS011;16367;48.736;9.218;2023-04-24T00:13:30;2.83;;;0.85;;
29384;SDS011;16367;48.736;9.218;2023-04-24T00:15:32;4.78;;;1.10;;
29384;SDS011;16367;48.736;9.218;2023-04-24T00:17:35;2.88;;;0.90;;
29384;SDS011;16367;48.736;9.218;2023-04-24T00:19:38;2.55;;;0.77;;
29384;SDS011;16367;48.736;9.218;2023-04-24T00:21:41;2.78;;;0.80;;
29384;SDS011;16367;48.736;9.218;2023-04-24T00:23:44;2.33;;;0.73;;
29384;SDS011;16367;48.736;9.218;2023-04-24T00:25:48;2.42;;;0.80;;
29384;SDS011;16367;48.736;9.218;2023-04-24T00:27:51;2.40;;;0.73;;
29384;SDS011;16367;48.736;9.218;2023-04-24T00:29:54;2.33;;;0.80;;
29384;SDS011;16367;48.736;9.218;2023-04-24T00:31:57;3.80;;;1.10;;
29384;SDS011;16367;48.736;9.218;2023-04-24T00:34:00;2.28;;;0.75;;
29384;SDS011;16367;48.736;9.218;2023-04-24T00:36:03;2.78;;;0.90;;
29384;SDS011;16367;48.736;9.218;2023-04-24T00:38:08;3.03;;;0.88;;
29384;SDS011;16367;48.736;9.218;2023-04-24T00:40:11;4.65;;;0.90;;
29384;SDS011;16367;48.736;9.218;2023-04-24T00:42:15;2.45;;;0.80;;
29384;SDS011;16367;48.736;9.218;2023-04-24T00:44:18;2.20;;;0.82;;
29384;SDS011;16367;48.736;9.218;2023-04-24T00:46:21;2.60;;;0.80;;
29384;SDS011;16367;48.736;9.218;2023-04-24T00:48:24;2.65;;;0.70;;
29384;SDS011;16367;48.736;9.218;2023-04-24T00:50:27;4.88;;;0.80;;
29384;SDS011;16367;48.736;9.218;2023-04-24T00:52:31;3.03;;;0.93;;
29384;SDS011;16367;48.736;9.218;2023-04-24T00:54:34;2.55;;;0.90;;
29384;SDS011;16367;48.736;9.218;2023-04-24T00:56:37;2.60;;;0.70;;
29384;SDS011;16367;48.736;9.218;2023-04-24T00:58:41;2.03;;;0.73;;
29384;SDS011;16367;48.736;9.218;2023-04-24T01:00:44;2.05;;;0.65;;
29384;SDS011;16367;48.736;9.218;2023-04-24T01:02:48;6.03;;;1.42;;
29384;SDS011;16367;48.736;9.218;2023-04-24T01:04:53;2.88;;;0.85;;
29384;SDS011;16367;48.736;9.218;2023-04-24T01:06:56;2.63;;;0.70;;
29384;SDS011;16367;48.736;9.218;2023-04-24T01:08:59;3.38;;;0.70;;
29384;SDS011;16367;48.736;9.218;2023-04-24T01:11:03;3.22;;;0.80;;
29384;SDS011;16367;48.736;9.218;2023-04-24T01:13:06;1.92;;;0.70;;
29384;SDS011;16367;48.736;9.218;2023-04-24T01:15:11;2.75;;;0.80;;
29384;SDS011;16367;48.736;9.218;2023-04-24T01:17:14;4.75;;;0.90;;
29384;SDS011;16367;48.736;9.218;2023-04-24T01:19:17;2.00;;;0.70;;
29384;SDS011;16367;48.736;9.218;2023-04-24T01:21:21;2.67;;;0.88;;
29384;SDS011;16367;48.736;9.218;2023-04-24T01:23:27;2.60;;;0.80;;
29384;SDS011;16367;48.736;9.218;2023-04-24T01:25:29;2.58;;;0.80;;
29384;SDS011;16367;48.736;9.218;2023-04-24T01:27:33;2.38;;;0.70;;
29384;SDS011;16367;48.736;9.218;2023-04-24T01:29:35;2.88;;;0.90;;
29384;SDS011;16367;48.736;9.218;2023-04-24T01:31:38;4.15;;;0.80;;
29384;SDS011;16367;48.736;9.218;2023-04-24T01:33:42;2.15;;;0.80;;
29384;SDS011;16367;48.736;9.218;2023-04-24T01:35:45;2.60;;;0.80;;
29384;SDS011;16367;48.736;9.218;2023-04-24T01:37:47;2.53;;;0.80;;
29384;SDS011;16367;48.736;9.218;2023-04-24T01:39:51;3.80;;;0.82;;
29384;SDS011;16367;48.736;9.218;2023-04-24T01:41:54;3.50;;;0.80;;
29384;SDS011;16367;48.736;9.218;2023-04-24T01:43:58;3.38;;;0.73;;
29384;SDS011;16367;48.736;9.218;2023-04-24T01:46:00;2.67;;;0.85;;
29384;SDS011;16367;48.736;9.218;2023-04-24T01:48:03;2.65;;;0.73;;
29384;SDS011;16367;48.736;9.218;2023-04-24T01:50:07;3.15;;;0.70;;
29384;SDS011;16367;48.736;9.218;2023-04-24T01:52:11;3.88;;;0.75;;
29384;SDS011;16367;48.736;9.218;2023-04-24T01:54:14;2.95;;;0.80;;
29384;SDS011;16367;48.736;9.218;2023-04-24T01:56:18;4.97;;;1.27;;
29384;SDS011;16367;48.736;9.218;2023-04-24T01:58:21;3.47;;;0.80;;
29384;SDS011;16367;48.736;9.218;2023-04-24T02:00:25;5.18;;;1.10;;
29384;SDS011;16367;48.736;9.218;2023-04-24T02:02:27;2.53;;;0.73;;
29384;SDS011;16367;48.736;9.218;2023-04-24T02:04:31;2.35;;;0.73;;
29384;SDS011;16367;48.736;9.218;2023-04-24T02:06:34;4.05;;;0.80;;
29384;SDS011;16367;48.736;9.218;2023-04-24T02:08:37;3.15;;;1.02;;
29384;SDS011;16367;48.736;9.218;2023-04-24T02:10:39;2.63;;;0.80;;
29384;SDS011;16367;48.736;9.218;2023-04-24T02:12:43;2.20;;;0.65;;
29384;SDS011;16367;48.736;9.218;2023-04-24T02:14:46;3.53;;;0.90;;
29384;SDS011;16367;48.736;9.218;2023-04-24T02:16:49;3.47;;;0.90;;
29384;SDS011;16367;48.736;9.218;2023-04-24T02:18:52;2.58;;;0.82;;
29384;SDS011;16367;48.736;9.218;2023-04-24T02:20:54;2.75;;;0.93;;
29384;SDS011;16367;48.736;9.218;2023-04-24T02:22:57;2.90;;;0.70;;
29384;SDS011;16367;48.736;9.218;2023-04-24T02:24:59;3.33;;;0.85;;
29384;SDS011;16367;48.736;9.218;2023-04-24T02:27:02;5.93;;;1.17;;
29384;SDS011;16367;48.736;9.218;2023-04-24T02:29:07;4.90;;;0.93;;
29384;SDS011;16367;48.736;9.218;2023-04-24T02:31:10;6.88;;;1.10;;
29384;SDS011;16367;48.736;9.218;2023-04-24T02:33:13;3.85;;;0.70;;
29384;SDS011;16367;48.736;9.218;2023-04-24T02:35:15;3.38;;;0.70;;
29384;SDS011;16367;48.736;9.218;2023-04-24T02:37:18;2.28;;;0.90;;
29384;SDS011;16367;48.736;9.218;2023-04-24T02:39:21;3.30;;;0.95;;
29384;SDS011;16367;48.736;9.218;2023-04-24T02:41:24;2.53;;;0.77;;
29384;SDS011;16367;48.736;9.218;2023-04-24T02:43:32;2.28;;;0.73;;
29384;SDS011;16367;48.736;9.218;2023-04-24T02:45:36;2.83;;;0.70;;
29384;SDS011;16367;48.736;9.218;2023-04-24T02:47:39;3.65;;;0.80;;
29384;SDS011;16367;48.736;9.218;2023-04-24T02:49:42;3.55;;;1.35;;
29384;SDS011;16367;48.736;9.218;2023-04-24T02:51:45;2.35;;;0.70;;
29384;SDS011;16367;48.736;9.218;2023-04-24T02:53:48;3.50;;;0.85;;
29384;SDS011;16367;48.736;9.218;2023-04-24T02:55:50;2.22;;;0.77;;
29384;SDS011;16367;48.736;9.218;2023-04-24T02:57:53;2.53;;;0.70;;
29384;SDS011;16367;48.736;9.218;2023-04-24T02:59:56;2.60;;;0.70;;
29384;SDS011;16367;48.736;9.218;2023-04-24T03:02:00;2.95;;;0.80;;
29384;SDS011;16367;48.736;9.218;2023-04-24T03:04:02;3.20;;;0.88;;
29384;SDS011;16367;48.736;9.218;2023-04-24T03:06:06;2.30;;;0.60;;
29384;SDS011;16367;48.736;9.218;2023-04-24T03:08:09;3.78;;;0.90;;
29384;SDS011;16367;48.736;9.218;2023-04-24T03:10:12;4.40;;;1.10;;
29384;SDS011;16367;48.736;9.218;2023-04-24T03:12:15;2.50;;;0.75;;
29384;SDS011;16367;48.736;9.218;2023-04-24T03:14:18;1.92;;;0.70;;
29384;SDS011;16367;48.736;9.218;2023-04-24T03:16:21;2.97;;;0.80;;
29384;SDS011;16367;48.736;9.218;2023-04-24T03:18:25;2.35;;;0.80;;
29384;SDS011;16367;48.736;9.218;2023-04-24T03:20:28;1.98;;;0.70;;
29384;SDS011;16367;48.736;9.218;2023-04-24T03:22:31;1.33;;;0.63;;
29384;SDS011;16367;48.736;9.218;2023-04-24T03:24:34;2.05;;;0.70;;
29384;SDS011;16367;48.736;9.218;2023-04-24T03:26:37;2.63;;;0.70;;
29384;SDS011;16367;48.736;9.218;2023-04-24T03:28:40;2.90;;;0.85;;
29384;SDS011;16367;48.736;9.218;2023-04-24T03:30:43;2.60;;;0.90;;
29384;SDS011;16367;48.736;9.218;2023-04-24T03:32:45;2.53;;;0.80;;
29384;SDS011;16367;48.736;9.218;2023-04-24T03:34:49;2.55;;;0.90;;
29384;SDS011;16367;48.736;9.218;2023-04-24T03:36:52;3.15;;;0.82;;
29384;SDS011;16367;48.736;9.218;2023-04-24T03:38:55;2.53;;;0.60;;
29384;SDS011;16367;48.736;9.218;2023-04-24T03:40:57;4.70;;;0.90;;
29384;SDS011;16367;48.736;9.218;2023-04-24T03:43:00;2.20;;;0.77;;
29384;SDS011;16367;48.736;9.218;2023-04-24T03:45:03;1.90;;;0.77;;
29384;SDS011;16367;48.736;9.218;2023-04-24T03:47:06;2.45;;;0.90;;
29384;SDS011;16367;48.736;9.218;2023-04-24T03:49:09;2.30;;;0.73;;
29384;SDS011;16367;48.736;9.218;2023-04-24T03:51:13;5.82;;;0.90;;
29384;SDS011;16367;48.736;9.218;2023-04-24T03:53:16;3.42;;;0.80;;
29384;SDS011;16367;48.736;9.218;2023-04-24T03:55:18;2.35;;;0.73;;
29384;SDS011;16367;48.736;9.218;2023-04-24T03:57:21;2.03;;;0.70;;
29384;SDS011;16367;48.736;9.218;2023-04-24T03:59:24;2.17;;;0.70;;
29384;SDS011;16367;48.736;9.218;2023-04-24T04:01:26;3.97;;;0.90;;
29384;SDS011;16367;48.736;9.218;2023-04-24T04:03:29;3.20;;;0.70;;
29384;SDS011;16367;48.736;9.218;2023-04-24T04:05:32;2.53;;;0.73;;
29384;SDS011;16367;48.736;9.218;2023-04-24T04:07:36;1.80;;;0.63;;
29384;SDS011;16367;48.736;9.218;2023-04-24T04:09:39;2.60;;;0.82;;
29384;SDS011;16367;48.736;9.218;2023-04-24T04:11:42;4.10;;;0.90;;
29384;SDS011;16367;48.736;9.218;2023-04-24T04:13:45;2.40;;;0.90;;
29384;SDS011;16367;48.736;9.218;2023-04-24T04:15:49;3.88;;;1.00;;
29384;SDS011;16367;48.736;9.218;2023-04-24T04:17:51;2.30;;;0.85;;
29384;SDS011;16367;48.736;9.218;2023-04-24T04:19:54;2.70;;;0.70;;
29384;SDS011;16367;48.736;9.218;2023-04-24T04:21:57;2.67;;;0.80;;
29384;SDS011;16367;48.736;9.218;2023-04-24T04:24:01;3.53;;;0.80;;
29384;SDS011;16367;48.736;9.218;2023-04-24T04:26:06;2.95;;;0.80;;
29384;SDS011;16367;48.736;9.218;2023-04-24T04:28:10;5.72;;;0.90;;
29384;SDS011;16367;48.736;9.218;2023-04-24T04:30:13;2.10;;;0.73;;
29384;SDS011;16367;48.736;9.218;2023-04-24T04:32:16;2.80;;;0.88;;
29384;SDS011;16367;48.736;9.218;2023-04-24T04:34:19;3.90;;;0.98;;
29384;SDS011;16367;48.736;9.218;2023-04-24T04:36:25;6.00;;;1.17;;
29384;SDS011;16367;48.736;9.218;2023-04-24T04:38:27;5.03;;;0.93;;
29384;SDS011;16367;48.736;9.218;2023-04-24T04:42:36;2.97;;;0.90;;
29384;SDS011;16367;48.736;9.218;2023-04-24T04:44:41;7.60;;;1.50;;
29384;SDS011;16367;48.736;9.218;2023-04-24T04:46:46;3.53;;;1.20;;
29384;SDS011;16367;48.736;9.218;2023-04-24T04:48:48;4.80;;;1.50;;
29384;SDS011;16367;48.736;9.218;2023-04-24T04:50:51;5.00;;;1.15;;
29384;SDS011;16367;48.736;9.218;2023-04-24T04:52:54;4.22;;;1.40;;
29384;SDS011;16367;48.736;9.218;2023-04-24T04:54:57;4.18;;;1.20;;
29384;SDS011;16367;48.736;9.218;2023-04-24T04:57:00;3.58;;;1.08;;
29384;SDS011;16367;48.736;9.218;2023-04-24T04:59:04;3.45;;;1.17;;
29384;SDS011;16367;48.736;9.218;2023-04-24T05:01:07;3.97;;;1.30;;
29384;SDS011;16367;48.736;9.218;2023-04-24T05:03:10;3.38;;;1.30;;
29384;SDS011;16367;48.736;9.218;2023-04-24T05:05:21;4.80;;;1.33;;
29384;SDS011;16367;48.736;9.218;2023-04-24T05:07:24;4.97;;;1.52;;
29384;SDS011;16367;48.736;9.218;2023-04-24T05:09:27;4.03;;;1.25;;
29384;SDS011;16367;48.736;9.218;2023-04-24T05:11:30;3.30;;;1.45;;
29384;SDS011;16367;48.736;9.218;2023-04-24T05:13:34;4.10;;;1.30;;
29384;SDS011;16367;48.736;9.218;2023-04-24T05:15:41;3.88;;;1.33;;
29384;SDS011;16367;48.736;9.218;2023-04-24T05:17:44;3.55;;;1.40;;
29384;SDS011;16367;48.736;9.218;2023-04-24T05:19:46;3.67;;;1.50;;
29384;SDS011;16367;48.736;9.218;2023-04-24T05:21:49;3.65;;;1.27;;
29384;SDS011;16367;48.736;9.218;2023-04-24T05:23:52;4.05;;;1.42;;
29384;SDS011;16367;48.736;9.218;2023-04-24T05:25:54;3.80;;;1.30;;
29384;SDS011;16367;48.736;9.218;2023-04-24T05:27:57;4.05;;;1.13;;
29384;SDS011;16367;48.736;9.218;2023-04-24T05:30:01;4.57;;;1.20;;
29384;SDS011;16367;48.736;9.218;2023-04-24T05:32:05;3.20;;;1.20;;
29384;SDS011;16367;48.736;9.218;2023-04-24T05:34:08;4.22;;;1.23;;
29384;SDS011;16367;48.736;9.218;2023-04-24T05:36:11;4.60;;;1.30;;
29384;SDS011;16367;48.736;9.218;2023-04-24T05:38:14;4.07;;;1.42;;
29384;SDS011;16367;48.736;9.218;2023-04-24T05:40:19;4.30;;;1.45;;
29384;SDS011;16367;48.736;9.218;2023-04-24T05:42:21;4.10;;;1.42;;
29384;SDS011;16367;48.736;9.218;2023-04-24T05:44:24;3.78;;;1.23;;
29384;SDS011;16367;48.736;9.218;2023-04-24T05:46:28;3.95;;;1.63;;
29384;SDS011;16367;48.736;9.218;2023-04-24T05:48:31;4.55;;;1.60;;
29384;SDS011;16367;48.736;9.218;2023-04-24T05:50:34;4.32;;;1.30;;
29384;SDS011;16367;48.736;9.218;2023-04-24T05:52:37;5.35;;;1.67;;
29384;SDS011;16367;48.736;9.218;2023-04-24T05:54:40;5.05;;;1.50;;
29384;SDS011;16367;48.736;9.218;2023-04-24T05:56:43;3.75;;;1.48;;
29384;SDS011;16367;48.736;9.218;2023-04-24T05:58:46;3.67;;;1.33;;
29384;SDS011;16367;48.736;9.218;2023-04-24T06:00:48;4.43;;;1.50;;
29384;SDS011;16367;48.736;9.218;2023-04-24T06:02:52;4.65;;;1.63;;
29384;SDS011;16367;48.736;9.218;2023-04-24T06:04:56;5.30;;;1.60;;
29384;SDS011;16367;48.736;9.218;2023-04-24T06:07:00;4.20;;;1.50;;
29384;SDS011;16367;48.736;9.218;2023-04-24T06:09:04;6.15;;;2.00;;
29384;SDS011;16367;48.736;9.218;2023-04-24T06:11:06;4.07;;;1.83;;
29384;SDS011;16367;48.736;9.218;2023-04-24T06:13:09;6.35;;;1.58;;
29384;SDS011;16367;48.736;9.218;2023-04-24T06:15:12;4.43;;;1.77;;
29384;SDS011;16367;48.736;9.218;2023-04-24T06:17:15;4.60;;;1.42;;
29384;SDS011;16367;48.736;9.218;2023-04-24T06:19:19;4.18;;;1.70;;
29384;SDS011;16367;48.736;9.218;2023-04-24T06:21:22;3.30;;;1.27;;
29384;SDS011;16367;48.736;9.218;2023-04-24T06:23:25;3.58;;;1.30;;
29384;SDS011;16367;48.736;9.218;2023-04-24T06:25:27;6.10;;;2.05;;
29384;SDS011;16367;48.736;9.218;2023-04-24T06:27:30;5.82;;;1.70;;
29384;SDS011;16367;48.736;9.218;2023-04-24T06:29:33;4.05;;;1.52;;
29384;SDS011;16367;48.736;9.218;2023-04-24T06:31:36;4.03;;;1.60;;
29384;SDS011;16367;48.736;9.218;2023-04-24T06:33:38;4.00;;;1.45;;
29384;SDS011;16367;48.736;9.218;2023-04-24T06:35:43;4.07;;;1.55;;
29384;SDS011;16367;48.736;9.218;2023-04-24T06:37:46;7.55;;;2.00;;
29384;SDS011;16367;48.736;9.218;2023-04-24T06:39:48;4.82;;;2.05;;
29384;SDS011;16367;48.736;9.218;2023-04-24T06:41:51;4.75;;;1.60;;
29384;SDS011;16367;48.736;9.218;2023-04-24T06:43:54;4.78;;;1.42;;
29384;SDS011;16367;48.736;9.218;2023-04-24T06:45:56;4.47;;;1.30;;
29384;SDS011;16367;48.736;9.218;2023-04-24T06:48:00;4.85;;;1.80;;
29384;SDS011;16367;48.736;9.218;2023-04-24T06:50:03;3.33;;;1.48;;
29384;SDS011;16367;48.736;9.218;2023-04-24T06:52:07;3.35;;;1.25;;
29384;SDS011;16367;48.736;9.218;2023-04-24T06:54:10;3.67;;;1.67;;
29384;SDS011;16367;48.736;9.218;2023-04-24T06:56:13;7.32;;;1.70;;
29384;SDS011;16367;48.736;9.218;2023-04-24T06:58:16;4.53;;;1.25;;
29384;SDS011;16367;48.736;9.218;2023-04-24T07:00:19;3.47;;;1.40;;
29384;SDS011;16367;48.736;9.218;2023-04-24T07:02:22;3.38;;;1.40;;
29384;SDS011;16367;48.736;9.218;2023-04-24T07:04:25;3.47;;;1.40;;
29384;SDS011;16367;48.736;9.218;2023-04-24T07:06:28;4.05;;;1.30;;
29384;SDS011;16367;48.736;9.218;2023-04-24T07:08:33;4.32;;;1.60;;
29384;SDS011;16367;48.736;9.218;2023-04-24T07:10:37;4.88;;;1.50;;
29384;SDS011;16367;48.736;9.218;2023-04-24T07:12:39;4.07;;;1.27;;
29384;SDS011;16367;48.736;9.218;2023-04-24T07:14:42;4.55;;;1.60;;
29384;SDS011;16367;48.736;9.218;2023-04-24T07:16:45;3.90;;;1.40;;
29384;SDS011;16367;48.736;9.218;2023-04-24T07:18:48;4.28;;;1.65;;
29384;SDS011;16367;48.736;9.218;2023-04-24T07:20:51;5.68;;;2.00;;
29384;SDS011;16367;48.736;9.218;2023-04-24T07:22:54;5.70;;;1.67;;
29384;SDS011;16367;48.736;9.218;2023-04-24T07:24:58;3.95;;;1.30;;
29384;SDS011;16367;48.736;9.218;2023-04-24T07:27:00;4.55;;;1.58;;
29384;SDS011;16367;48.736;9.218;2023-04-24T07:29:03;4.13;;;1.63;;
29384;SDS011;16367;48.736;9.218;2023-04-24T07:31:06;3.05;;;1.20;;
29384;SDS011;16367;48.736;9.218;2023-04-24T07:33:09;4.93;;;1.52;;
29384;SDS011;16367;48.736;9.218;2023-04-24T07:35:14;8.27;;;1.40;;
29384;SDS011;16367;48.736;9.218;2023-04-24T07:37:17;4.18;;;1.35;;
29384;SDS011;16367;48.736;9.218;2023-04-24T07:39:19;3.40;;;1.10;;
29384;SDS011;16367;48.736;9.218;2023-04-24T07:41:23;4.10;;;1.25;;
29384;SDS011;16367;48.736;9.218;2023-04-24T07:43:26;3.70;;;1.20;;
29384;SDS011;16367;48.736;9.218;2023-04-24T07:45:29;3.20;;;1.10;;
29384;SDS011;16367;48.736;9.218;2023-04-24T07:47:32;3.78;;;1.13;;
29384;SDS011;16367;48.736;9.218;2023-04-24T07:49:35;3.55;;;0.98;;
29384;SDS011;16367;48.736;9.218;2023-04-24T07:51:38;4.05;;;1.75;;
29384;SDS011;16367;48.736;9.218;2023-04-24T07:53:42;3.65;;;1.20;;
29384;SDS011;16367;48.736;9.218;2023-04-24T07:55:45;3.95;;;1.10;;
29384;SDS011;16367;48.736;9.218;2023-04-24T07:57:50;3.55;;;1.20;;
29384;SDS011;16367;48.736;9.218;2023-04-24T07:59:53;4.30;;;1.23;;
29384;SDS011;16367;48.736;9.218;2023-04-24T08:01:56;3.92;;;1.13;;
29384;SDS011;16367;48.736;9.218;2023-04-24T08:03:59;5.75;;;1.20;;
29384;SDS011;16367;48.736;9.218;2023-04-24T08:06:02;3.47;;;1.38;;
29384;SDS011;16367;48.736;9.218;2023-04-24T08:08:05;3.20;;;1.25;;
29384;SDS011;16367;48.736;9.218;2023-04-24T08:10:09;4.03;;;1.10;;
29384;SDS011;16367;48.736;9.218;2023-04-24T08:12:12;3.38;;;1.00;;
29384;SDS011;16367;48.736;9.218;2023-04-24T08:14:16;3.38;;;1.02;;
29384;SDS011;16367;48.736;9.218;2023-04-24T08:16:19;3.38;;;0.95;;
29384;SDS011;16367;48.736;9.218;2023-04-24T08:18:21;3.80;;;1.08;;
29384;SDS011;16367;48.736;9.218;2023-04-24T08:20:24;3.35;;;1.15;;
29384;SDS011;16367;48.736;9.218;2023-04-24T08:22:27;4.93;;;1.35;;
29384;SDS011;16367;48.736;9.218;2023-04-24T08:24:30;3.50;;;1.27;;
29384;SDS011;16367;48.736;9.218;2023-04-24T08:26:33;3.60;;;1.20;;
29384;SDS011;16367;48.736;9.218;2023-04-24T08:28:36;3.72;;;1.13;;
29384;SDS011;16367;48.736;9.218;2023-04-24T08:30:40;3.15;;;1.35;;
29384;SDS011;16367;48.736;9.218;2023-04-24T08:32:42;5.72;;;1.40;;
29384;SDS011;16367;48.736;9.218;2023-04-24T08:34:45;3.15;;;1.10;;
29384;SDS011;16367;48.736;9.218;2023-04-24T08:36:50;4.35;;;1.30;;
29384;SDS011;16367;48.736;9.218;2023-04-24T08:38:53;4.35;;;1.25;;
29384;SDS011;16367;48.736;9.218;2023-04-24T08:40:56;3.20;;;0.90;;
29384;SDS011;16367;48.736;9.218;2023-04-24T08:43:00;3.15;;;1.15;;
29384;SDS011;16367;48.736;9.218;2023-04-24T08:45:03;3.05;;;1.15;;
29384;SDS011;16367;48.736;9.218;2023-04-24T08:47:08;3.25;;;1.08;;
29384;SDS011;16367;48.736;9.218;2023-04-24T08:49:15;3.80;;;1.00;;
29384;SDS011;16367;48.736;9.218;2023-04-24T08:51:18;3.33;;;1.02;;
29384;SDS011;16367;48.736;9.218;2023-04-24T08:53:22;3.00;;;1.08;;
29384;SDS011;16367;48.736;9.218;2023-04-24T08:55:27;3.30;;;1.10;;
29384;SDS011;16367;48.736;9.218;2023-04-24T08:57:32;2.63;;;1.00;;
29384;SDS011;16367;48.736;9.218;2023-04-24T08:59:37;5.47;;;1.30;;
29384;SDS011;16367;48.736;9.218;2023-04-24T09:01:41;5.18;;;1.40;;
29384;SDS011;16367;48.736;9.218;2023-04-24T09:03:45;3.50;;;1.30;;
29384;SDS011;16367;48.736;9.218;2023-04-24T09:05:50;2.80;;;1.10;;
29384;SDS011;16367;48.736;9.218;2023-04-24T09:07:55;4.50;;;1.10;;
29384;SDS011;16367;48.736;9.218;2023-04-24T09:09:59;3.30;;;1.20;;
29384;SDS011;16367;48.736;9.218;2023-04-24T09:12:03;5.50;;;1.30;;
29384;SDS011;16367;48.736;9.218;2023-04-24T09:14:06;3.58;;;1.30;;
29384;SDS011;16367;48.736;9.218;2023-04-24T09:16:09;3.47;;;1.30;;
29384;SDS011;16367;48.736;9.218;2023-04-24T09:18:12;3.20;;;1.25;;
29384;SDS011;16367;48.736;9.218;2023-04-24T09:20:16;3.97;;;1.20;;
29384;SDS011;16367;48.736;9.218;2023-04-24T09:22:19;4.10;;;1.20;;
29384;SDS011;16367;48.736;9.218;2023-04-24T09:24:22;4.75;;;1.20;;
29384;SDS011;16367;48.736;9.218;2023-04-24T09:26:25;3.40;;;1.13;;
29384;SDS011;16367;48.736;9.218;2023-04-24T09:28:29;4.78;;;1.40;;
29384;SDS011;16367;48.736;9.218;2023-04-24T09:32:37;4.03;;;1.00;;
29384;SDS011;16367;48.736;9.218;2023-04-24T09:34:40;3.88;;;1.30;;
29384;SDS011;16367;48.736;9.218;2023-04-24T09:36:46;5.93;;;1.20;;
29384;SDS011;16367;48.736;9.218;2023-04-24T09:38:49;3.08;;;1.02;;
29384;SDS011;16367;48.736;9.218;2023-04-24T09:41:00;3.33;;;0.90;;
29384;SDS011;16367;48.736;9.218;2023-04-24T09:43:04;3.38;;;1.20;;
29384;SDS011;16367;48.736;9.218;2023-04-24T09:45:13;2.70;;;0.90;;
29384;SDS011;16367;48.736;9.218;2023-04-24T09:47:16;2.55;;;0.90;;
29384;SDS011;16367;48.736;9.218;2023-04-24T09:49:21;2.20;;;0.70;;
29384;SDS011;16367;48.736;9.218;2023-04-24T09:51:34;2.85;;;1.00;;
29384;SDS011;16367;48.736;9.218;2023-04-24T09:53:40;2.35;;;0.75;;
29384;SDS011;16367;48.736;9.218;2023-04-24T09:55:48;3.00;;;0.90;;
29384;SDS011;16367;48.736;9.218;2023-04-24T09:57:52;4.53;;;0.90;;
29384;SDS011;16367;48.736;9.218;2023-04-24T09:59:57;3.25;;;0.95;;
29384;SDS011;16367;48.736;9.218;2023-04-24T10:02:00;3.33;;;0.90;;
29384;SDS011;16367;48.736;9.218;2023-04-24T10:04:03;4.00;;;1.10;;
29384;SDS011;16367;48.736;9.218;2023-04-24T10:06:06;2.47;;;0.90;;
29384;SDS011;16367;48.736;9.218;2023-04-24T10:08:11;3.13;;;0.82;;
29384;SDS011;16367;48.736;9.218;2023-04-24T10:10:15;3.17;;;0.85;;
29384;SDS011;16367;48.736;9.218;2023-04-24T10:12:18;3.40;;;0.90;;
29384;SDS011;16367;48.736;9.218;2023-04-24T10:14:22;5.38;;;1.00;;
29384;SDS011;16367;48.736;9.218;2023-04-24T10:16:26;3.55;;;1.00;;
29384;SDS011;16367;48.736;9.218;2023-04-24T10:18:30;4.05;;;0.80;;
29384;SDS011;16367;48.736;9.218;2023-04-24T10:20:34;3.13;;;0.90;;
29384;SDS011;16367;48.736;9.218;2023-04-24T10:22:38;4.30;;;1.00;;
29384;SDS011;16367;48.736;9.218;2023-04-24T10:24:42;3.22;;;0.95;;
29384;SDS011;16367;48.736;9.218;2023-04-24T10:26:47;4.80;;;1.10;;
29384;SDS011;16367;48.736;9.218;2023-04-24T10:28:50;2.60;;;0.93;;
29384;SDS011;16367;48.736;9.218;2023-04-24T10:30:54;5.05;;;0.95;;
29384;SDS011;16367;48.736;9.218;2023-04-24T10:32:57;2.60;;;1.00;;
29384;SDS011;16367;48.736;9.218;2023-04-24T10:34:59;3.55;;;1.00;;
29384;SDS011;16367;48.736;9.218;2023-04-24T10:37:02;2.15;;;0.82;;
29384;SDS011;16367;48.736;9.218;2023-04-24T10:39:06;2.83;;;0.93;;
29384;SDS011;16367;48.736;9.218;2023-04-24T10:41:12;2.33;;;0.80;;
29384;SDS011;16367;48.736;9.218;2023-04-24T10:43:19;2.60;;;0.80;;
29384;SDS011;16367;48.736;9.218;2023-04-24T10:45:22;2.38;;;0.80;;
29384;SDS011;16367;48.736;9.218;2023-04-24T10:47:26;4.40;;;1.15;;
29384;SDS011;16367;48.736;9.218;2023-04-24T10:49:29;2.90;;;1.00;;
29384;SDS011;16367;48.736;9.218;2023-04-24T10:51:44;4.63;;;1.08;;
29384;SDS011;16367;48.736;9.218;2023-04-24T10:53:49;3.55;;;0.82;;
29384;SDS011;16367;48.736;9.218;2023-04-24T10:55:56;3.00;;;0.90;;
29384;SDS011;16367;48.736;9.218;2023-04-24T10:58:01;2.92;;;1.15;;
29384;SDS011;16367;48.736;9.218;2023-04-24T11:00:15;2.72;;;0.90;;
29384;SDS011;16367;48.736;9.218;2023-04-24T11:02:23;4.07;;;1.00;;
29384;SDS011;16367;48.736;9.218;2023-04-24T11:04:38;4.25;;;1.20;;
29384;SDS011;16367;48.736;9.218;2023-04-24T11:06:41;3.05;;;0.90;;
29384;SDS011;16367;48.736;9.218;2023-04-24T11:08:45;2.72;;;0.95;;
29384;SDS011;16367;48.736;9.218;2023-04-24T11:10:54;2.58;;;1.00;;
29384;SDS011;16367;48.736;9.218;2023-04-24T11:13:10;2.90;;;1.10;;
29384;SDS011;16367;48.736;9.218;2023-04-24T11:15:17;3.35;;;1.02;;
29384;SDS011;16367;48.736;9.218;2023-04-24T11:17:28;2.67;;;0.93;;
29384;SDS011;16367;48.736;9.218;2023-04-24T11:19:33;3.75;;;1.02;;
29384;SDS011;16367;48.736;9.218;2023-04-24T11:21:41;3.88;;;1.00;;
29384;SDS011;16367;48.736;9.218;2023-04-24T11:23:45;2.10;;;0.75;;
29384;SDS011;16367;48.736;9.218;2023-04-24T11:25:52;4.22;;;1.05;;
29384;SDS011;16367;48.736;9.218;2023-04-24T11:30:19;2.00;;;0.73;;
29384;SDS011;16367;48.736;9.218;2023-04-24T11:32:26;3.40;;;0.90;;
29384;SDS011;16367;48.736;9.218;2023-04-24T11:34:30;3.10;;;0.93;;
29384;SDS011;16367;48.736;9.218;2023-04-24T11:36:34;2.72;;;1.00;;
29384;SDS011;16367;48.736;9.218;2023-04-24T11:38:38;3.97;;;1.08;;
29384;SDS011;16367;48.736;9.218;2023-04-24T11:40:41;3.65;;;1.40;;
29384;SDS011;16367;48.736;9.218;2023-04-24T11:42:44;3.65;;;0.98;;
29384;SDS011;16367;48.736;9.218;2023-04-24T11:44:49;3.63;;;1.10;;
29384;SDS011;16367;48.736;9.218;2023-04-24T11:46:55;3.10;;;1.13;;
29384;SDS011;16367;48.736;9.218;2023-04-24T11:51:01;2.67;;;1.00;;
29384;SDS011;16367;48.736;9.218;2023-04-24T11:53:04;3.63;;;1.00;;
29384;SDS011;16367;48.736;9.218;2023-04-24T11:55:07;3.80;;;1.52;;
29384;SDS011;16367;48.736;9.218;2023-04-24T11:57:25;3.05;;;1.20;;
29384;SDS011;16367;48.736;9.218;2023-04-24T11:59:30;3.63;;;1.25;;
29384;SDS011;16367;48.736;9.218;2023-04-24T12:01:42;2.88;;;0.90;;
29384;SDS011;16367;48.736;9.218;2023-04-24T12:03:48;3.83;;;1.00;;
29384;SDS011;16367;48.736;9.218;2023-04-24T12:05:52;3.28;;;1.20;;
29384;SDS011;16367;48.736;9.218;2023-04-24T12:08:06;3.08;;;1.08;;
29384;SDS011;16367;48.736;9.218;2023-04-24T12:10:09;2.75;;;1.10;;
29384;SDS011;16367;48.736;9.218;2023-04-24T12:12:12;2.85;;;1.05;;
29384;SDS011;16367;48.736;9.218;2023-04-24T12:14:17;3.42;;;1.10;;
29384;SDS011;16367;48.736;9.218;2023-04-24T12:16:20;4.30;;;1.20;;
29384;SDS011;16367;48.736;9.218;2023-04-24T12:18:23;2.88;;;1.00;;
29384;SDS011;16367;48.736;9.218;2023-04-24T12:20:28;3.40;;;1.10;;
29384;SDS011;16367;48.736;9.218;2023-04-24T12:22:44;2.63;;;0.93;;
29384;SDS011;16367;48.736;9.218;2023-04-24T12:24:57;3.30;;;0.93;;
29384;SDS011;16367;48.736;9.218;2023-04-24T12:27:02;3.67;;;1.50;;
29384;SDS011;16367;48.736;9.218;2023-04-24T12:29:04;2.50;;;0.95;;
29384;SDS011;16367;48.736;9.218;2023-04-24T12:31:09;3.22;;;1.10;;
29384;SDS011;16367;48.736;9.218;2023-04-24T12:33:11;4.65;;;1.40;;
29384;SDS011;16367;48.736;9.218;2023-04-24T12:35:18;4.78;;;1.35;;